Time;durP1;ratioP1;P1;durP2;ratioP2;P2;SDS_P1;SDS_P2;PMS_P1;PMS_P2;Temp;Humidity;BMP_temperature;BMP_pressure;BME280_temperature;BME280_humidity;BME280_pressure;Samples;Min_cycle;Max_cycle;Signal;HPM_P1;HPM_P2
2023/10/30 00:03:19;;;;;;;;;;;;;;;;;;10473741;28;19920;-76
2023/10/30 00:08:19;;;;;;;;;;;;;;;;;;10469764;28;20662;-74
2023/10/30 00:13:20;;;;;;;;;;;;;;;;;;10471310;28;19928;-75
2023/10/30 00:18:20;;;;;;;;;;;;;;;;;;10452383;28;19921;-78
2023/10/30 00:23:20;;;;;;;;;;;;;;;;;;10470501;28;19935;-75
2023/10/30 00:28:22;;;;;;;;;;;;;;;;;;10460862;28;20992;-78
2023/10/30 00:33:22;;;;;;;;;;;;;;;;;;10452026;28;19940;-75
2023/10/30 00:38:23;;;;;;;;;;;;;;;;;;10470725;28;19921;-75
2023/10/30 00:43:23;;;;;;;;;;;;;;;;;;10471416;28;20605;-73
2023/10/30 00:48:25;;;;;;;;;;;;;;;;;;10470063;28;19918;-73
2023/10/30 00:53:25;;;;;;;;;;;;;;;;;;10468990;28;19964;-73
2023/10/30 00:58:25;;;;;;;;;;;;;;;;;;10470133;28;19927;-73
2023/10/30 01:03:26;;;;;;;;;;;;;;;;;;10469382;28;19921;-75
2023/10/30 01:08:26;;;;;;;;;;;;;;;;;;10467035;28;19921;-76
2023/10/30 01:13:26;;;;;;;;;;;;;;;;;;10464318;28;19929;-73
2023/10/30 01:18:26;;;;;;;;;;;;;;;;;;10465551;28;19975;-75
2023/10/30 01:23:27;;;;;;;;;;;;;;;;;;10463528;28;20181;-76
2023/10/30 01:28:27;;;;;;;;;;;;;;;;;;10463392;28;19951;-75
2023/10/30 01:33:27;;;;;;;;;;;;;;;;;;10456337;28;20369;-74
2023/10/30 01:38:27;;;;;;;;;;;;;;;;;;10461925;28;19917;-73
2023/10/30 01:43:28;;;;;;;;;;;;;;;;;;10466103;28;19920;-74
2023/10/30 01:48:28;;;;;;;;;;;;;;;;;;10459927;28;20034;-73
2023/10/30 01:53:29;;;;;;;;;;;;;;;;;;10442965;28;19929;-75
2023/10/30 01:58:29;;;;;;;;;;;;;;;;;;10423863;28;19927;-73
2023/10/30 02:03:29;;;;;;;;;;;;;;;;;;10425419;28;19921;-73
2023/10/30 02:08:30;;;;;;;;;;;;;;;;;;10462538;28;19989;-74
2023/10/30 02:13:30;;;;;;;;;;;;;;;;;;10402905;28;20384;-77
2023/10/30 02:18:30;;;;;;;;;;;;;;;;;;10461571;28;20332;-76
2023/10/30 02:23:30;;;;;;;;;;;;;;;;;;10449574;28;20404;-76
2023/10/30 02:28:30;;;;;;;;;;;;;;;;;;10456371;28;20534;-74
2023/10/30 02:33:31;;;;;;;;;;;;;;;;;;10442737;28;19932;-75
2023/10/30 02:38:31;;;;;;;;;;;;;;;;;;10463768;28;20024;-74
2023/10/30 02:43:31;;;;;;;;;;;;;;;;;;10467949;28;19974;-75
2023/10/30 02:48:31;;;;;;;;;;;;;;;;;;10467952;28;19960;-74
2023/10/30 02:53:31;;;;;;;;;;;;;;;;;;10468591;28;19924;-77
2023/10/30 02:58:32;;;;;;;;;;;;;;;;;;10478091;28;19927;-77
2023/10/30 03:03:32;;;;;;;;;;;;;;;;;;10475027;28;20670;-76
2023/10/30 03:08:32;;;;;;;;;;;;;;;;;;10473870;28;19924;-74
2023/10/30 03:13:32;;;;;;;;;;;;;;;;;;10455783;28;19935;-73
2023/10/30 03:18:33;;;;;;;;;;;;;;;;;;10473383;28;19928;-74
2023/10/30 03:23:33;;;;;;;;;;;;;;;;;;10453113;28;20018;-74
2023/10/30 03:28:33;;;;;;;;;;;;;;;;;;10464927;28;20469;-75
2023/10/30 03:33:33;;;;;;;;;;;;;;;;;;10467853;28;20711;-74
2023/10/30 03:38:33;;;;;;;;;;;;;;;;;;10471249;28;19932;-73
2023/10/30 03:43:34;;;;;;;;;;;;;;;;;;10473219;28;19935;-73
2023/10/30 03:48:34;;;;;;;;;;;;;;;;;;10473303;28;19927;-74
2023/10/30 03:53:35;;;;;;;;;;;;;;;;;;10470690;28;19982;-75
2023/10/30 03:58:36;;;;;;;;;;;;;;;;;;10471721;28;19938;-72
2023/10/30 04:03:36;;;;;;;;;;;;;;;;;;10471788;28;19920;-74
2023/10/30 04:08:36;;;;;;;;;;;;;;;;;;10452448;28;19928;-75
2023/10/30 04:13:36;;;;;;;;;;;;;;;;;;10467718;28;19932;-74
2023/10/30 04:18:37;;;;;;;;;;;;;;;;;;10465702;28;20361;-74
2023/10/30 04:23:38;;;;;;;;;;;;;;;;;;10466118;28;19921;-74
2023/10/30 04:28:38;;;;;;;;;;;;;;;;;;10454943;28;19932;-76
2023/10/30 04:33:38;;;;;;;;;;;;;;;;;;10446361;28;20015;-76
2023/10/30 04:38:39;;;;;;;;;;;;;;;;;;10461925;28;19924;-75
2023/10/30 04:43:39;;;;;;;;;;;;;;;;;;10461138;28;20042;-72
2023/10/30 04:48:39;;;;;;;;;;;;;;;;;;10467939;28;19999;-76
2023/10/30 04:53:39;;;;;;;;;;;;;;;;;;10451038;28;20735;-75
2023/10/30 04:58:39;;;;;;;;;;;;;;;;;;10455099;28;19929;-75
2023/10/30 05:03:40;;;;;;;;;;;;;;;;;;10468145;28;19929;-73
2023/10/30 05:08:40;;;;;;;;;;;;;;;;;;10458969;28;19924;-77
2023/10/30 05:13:40;;;;;;;;;;;;;;;;;;10467782;28;19986;-76
2023/10/30 05:18:40;;;;;;;;;;;;;;;;;;10457005;28;19924;-74
2023/10/30 05:23:41;;;;;;;;;;;;;;;;;;10456863;28;20635;-77
2023/10/30 05:28:41;;;;;;;;;;;;;;;;;;10464174;28;19930;-77
2023/10/30 05:33:41;;;;;;;;;;;;;;;;;;10466398;28;20291;-77
2023/10/30 05:38:41;;;;;;;;;;;;;;;;;;10468802;28;19931;-71
2023/10/30 05:43:42;;;;;;;;;;;;;;;;;;10453770;28;19932;-74
2023/10/30 05:48:42;;;;;;;;;;;;;;;;;;10468405;28;19983;-74
2023/10/30 05:53:43;;;;;;;;;;;;;;;;;;10462198;28;19936;-76
2023/10/30 05:58:43;;;;;;;;;;;;;;;;;;10464658;28;19925;-72
2023/10/30 06:03:44;;;;;;;;;;;;;;;;;;10463518;28;19970;-73
2023/10/30 06:08:44;;;;;;;;;;;;;;;;;;10454011;28;20651;-74
2023/10/30 06:13:44;;;;;;;;;;;;;;;;;;10472075;28;19925;-75
2023/10/30 06:18:44;;;;;;;;;;;;;;;;;;10478279;28;19927;-74
2023/10/30 06:23:44;;;;;;;;;;;;;;;;;;10461970;28;19920;-73
2023/10/30 06:28:45;;;;;;;;;;;;;;;;;;10522541;28;20486;-75
2023/10/30 06:33:45;;;;;;;;;;;;;;;;;;10504055;28;19953;-74
2023/10/30 06:38:45;;;;;;;;;;;;;;;;;;10519797;28;19973;-75
2023/10/30 06:43:46;;;;;;;;;;;;;;;;;;10523652;28;19920;-74
2023/10/30 06:48:46;;;;;;;;;;;;;;;;;;10523593;28;19920;-75
2023/10/30 06:53:46;;;;;;;;;;;;;;;;;;10525848;28;20019;-72
2023/10/30 06:58:47;;;;;;;;;;;;;;;;;;10526058;28;20392;-73
2023/10/30 07:03:47;;;;;;;;;;;;;;;;;;10523339;28;19924;-76
2023/10/30 07:08:48;;;;;;;;;;;;;;;;;;10520512;28;19959;-75
2023/10/30 07:13:48;;;;;;;;;;;;;;;;;;10521239;28;20455;-75
2023/10/30 07:18:48;;;;;;;;;;;;;;;;;;10515938;28;20372;-77
2023/10/30 07:23:49;;;;;;;;;;;;;;;;;;10512694;28;19920;-73
2023/10/30 07:28:49;;;;;;;;;;;;;;;;;;10463600;28;19920;-76
2023/10/30 07:33:49;;;;;;;;;;;;;;;;;;10458082;28;19924;-74
2023/10/30 07:38:50;;;;;;;;;;;;;;;;;;10456471;28;19924;-73
2023/10/30 07:43:50;;;;;;;;;;;;;;;;;;10446220;28;19920;-73
2023/10/30 07:48:50;;;;;;;;;;;;;;;;;;10451988;28;19921;-72
2023/10/30 07:53:50;;;;;;;;;;;;;;;;;;10478279;28;20492;-74
2023/10/30 07:58:50;;;;;;;;;;;;;;;;;;10450735;28;19927;-75
2023/10/30 08:03:51;;;;;;;;;;;;;;;;;;10453825;28;19962;-74
2023/10/30 08:08:52;;;;;;;;;;;;;;;;;;10474844;28;20704;-75
2023/10/30 08:13:52;;;;;;;;;;;;;;;;;;10454100;28;20030;-75
2023/10/30 08:18:52;;;;;;;;;;;;;;;;;;10465579;28;19921;-75
2023/10/30 08:23:52;;;;;;;;;;;;;;;;;;10472449;28;19944;-75
2023/10/30 08:28:53;;;;;;;;;;;;;;;;;;10516048;28;19920;-75
2023/10/30 08:33:54;;;;;;;;;;;;;;;;;;10508434;28;19928;-73
2023/10/30 08:38:54;;;;;;;;;;;;;;;;;;10485574;28;19948;-76
2023/10/30 08:43:54;;;;;;;;;;;;;;;;;;10485991;28;19920;-77
2023/10/30 08:48:56;;;;;;;;;;;;;;;;;;10509833;28;19924;-77
2023/10/30 08:53:56;;;;;;;;;;;;;;;;;;10496335;28;19935;-75
2023/10/30 08:58:56;;;;;;;;;;;;;;;;;;10479346;28;19921;-75
2023/10/30 09:03:56;;;;;;;;;;;;;;;;;;10507647;28;19927;-74
2023/10/30 09:08:57;;;;;;;;;;;;;;;;;;10497488;28;19920;-75
2023/10/30 09:13:57;;;;;;;;;;;;;;;;;;10490978;28;20010;-74
2023/10/30 09:18:57;;;;;;;;;;;;;;;;;;10501314;28;19924;-76
2023/10/30 09:23:57;;;;;;;;;;;;;;;;;;10484672;28;20559;-77
2023/10/30 09:28:58;;;;;;;;;;;;;;;;;;10477552;28;19930;-75
2023/10/30 09:33:59;;;;;;;;;;;;;;;;;;10482557;28;20384;-73
2023/10/30 09:38:59;;;;;;;;;;;;;;;;;;10502616;28;20035;-72
2023/10/30 09:43:59;;;;;;;;;;;;;;;;;;10495220;28;20656;-74
2023/10/30 09:48:59;;;;;;;;;;;;;;;;;;10489614;28;21065;-74
2023/10/30 09:54:00;;;;;;;;;;;;;;;;;;10500753;28;20590;-73
2023/10/30 09:59:00;;;;;;;;;;;;;;;;;;10463330;28;19924;-74
2023/10/30 10:04:00;;;;;;;;;;;;;;;;;;10494451;28;19931;-75
2023/10/30 10:09:01;;;;;;;;;;;;;;;;;;10477623;28;19948;-76
2023/10/30 10:14:01;;;;;;;;;;;;;;;;;;10508088;28;19984;-75
2023/10/30 10:19:01;;;;;;;;;;;;;;;;;;10496876;28;19920;-75
2023/10/30 10:24:02;;;;;;;;;;;;;;;;;;10483248;28;19931;-75
2023/10/30 10:29:04;;;;;;;;;;;;;;;;;;10485704;28;20587;-75
2023/10/30 10:34:04;;;;;;;;;;;;;;;;;;10495816;28;19928;-76
2023/10/30 10:39:05;;;;;;;;;;;;;;;;;;10466464;28;19921;-76
2023/10/30 10:44:05;;;;;;;;;;;;;;;;;;10471816;28;19920;-76
2023/10/30 10:49:05;;;;;;;;;;;;;;;;;;10496722;28;19925;-75
2023/10/30 10:54:05;;;;;;;;;;;;;;;;;;10502321;28;19950;-76
2023/10/30 10:59:06;;;;;;;;;;;;;;;;;;10503719;28;19924;-75
2023/10/30 11:04:06;;;;;;;;;;;;;;;;;;10481255;28;20816;-76
2023/10/30 11:09:06;;;;;;;;;;;;;;;;;;10506771;28;19927;-77
2023/10/30 11:14:07;;;;;;;;;;;;;;;;;;10507056;28;20394;-77
2023/10/30 11:19:07;;;;;;;;;;;;;;;;;;10490833;28;19931;-75
2023/10/30 11:24:07;;;;;;;;;;;;;;;;;;10487325;28;19933;-76
2023/10/30 11:29:07;;;;;;;;;;;;;;;;;;10465318;28;19924;-77
2023/10/30 11:34:08;;;;;;;;;;;;;;;;;;10448258;28;19932;-76
2023/10/30 11:39:09;;;;;;;;;;;;;;;;;;10447621;28;19983;-74
2023/10/30 11:44:10;;;;;;;;;;;;;;;;;;10457972;28;19960;-76
2023/10/30 11:49:10;;;;;;;;;;;;;;;;;;10456575;28;19931;-75
2023/10/30 11:54:10;;;;;;;;;;;;;;;;;;10473886;28;20034;-74
2023/10/30 11:59:10;;;;;;;;;;;;;;;;;;10445942;28;19924;-76
2023/10/30 12:04:10;;;;;;;;;;;;;;;;;;10462909;28;19931;-74
2023/10/30 12:09:11;;;;;;;;;;;;;;;;;;10441644;28;19924;-76
2023/10/30 12:14:12;;;;;;;;;;;;;;;;;;10464740;28;19932;-75
2023/10/30 12:19:12;;;;;;;;;;;;;;;;;;10459986;28;19917;-75
2023/10/30 12:24:12;;;;;;;;;;;;;;;;;;10453532;28;19978;-75
2023/10/30 12:29:12;;;;;;;;;;;;;;;;;;10460898;28;20019;-76
2023/10/30 12:34:18;;;;;;;;;;;;;;;;;;10451202;28;19928;-75
2023/10/30 12:39:18;;;;;;;;;;;;;;;;;;10464562;28;19964;-75
2023/10/30 12:44:18;;;;;;;;;;;;;;;;;;10469199;28;20395;-75
2023/10/30 12:49:19;;;;;;;;;;;;;;;;;;10470040;28;19928;-75
2023/10/30 12:54:19;;;;;;;;;;;;;;;;;;10467924;28;20781;-74
2023/10/30 12:59:19;;;;;;;;;;;;;;;;;;10466123;28;19916;-75
2023/10/30 13:04:20;;;;;;;;;;;;;;;;;;10469587;28;19920;-75
2023/10/30 13:09:20;;;;;;;;;;;;;;;;;;10448379;28;20007;-74
2023/10/30 13:14:21;;;;;;;;;;;;;;;;;;10465281;28;19932;-76
2023/10/30 13:19:21;;;;;;;;;;;;;;;;;;10465129;28;19921;-76
2023/10/30 13:24:21;;;;;;;;;;;;;;;;;;10458427;28;19986;-75
2023/10/30 13:29:21;;;;;;;;;;;;;;;;;;10463621;28;20062;-76
2023/10/30 13:34:22;;;;;;;;;;;;;;;;;;10464212;28;20339;-76
2023/10/30 13:39:22;;;;;;;;;;;;;;;;;;10466481;28;19944;-75
2023/10/30 13:44:22;;;;;;;;;;;;;;;;;;10465261;28;19928;-76
2023/10/30 13:49:22;;;;;;;;;;;;;;;;;;10468080;28;20424;-75
2023/10/30 13:54:23;;;;;;;;;;;;;;;;;;10450040;28;19928;-75
2023/10/30 13:59:23;;;;;;;;;;;;;;;;;;10468862;28;20291;-75
2023/10/30 14:04:23;;;;;;;;;;;;;;;;;;10455137;28;19979;-75
2023/10/30 14:09:24;;;;;;;;;;;;;;;;;;10461466;28;19924;-72
2023/10/30 14:14:24;;;;;;;;;;;;;;;;;;10460368;28;19929;-74
2023/10/30 14:19:24;;;;;;;;;;;;;;;;;;10461825;28;20352;-75
2023/10/30 14:24:25;;;;;;;;;;;;;;;;;;10460156;28;19925;-74
2023/10/30 14:29:25;;;;;;;;;;;;;;;;;;10453263;28;20040;-74
2023/10/30 14:34:25;;;;;;;;;;;;;;;;;;10449968;28;19985;-78
2023/10/30 14:39:26;;;;;;;;;;;;;;;;;;10468048;28;20174;-74
2023/10/30 14:44:26;;;;;;;;;;;;;;;;;;10454217;28;19921;-76
2023/10/30 14:49:29;;;;;;;;;;;;;;;;;;10432758;28;20721;-74
2023/10/30 14:54:30;;;;;;;;;;;;;;;;;;10433707;28;19928;-77
2023/10/30 14:59:30;;;;;;;;;;;;;;;;;;10460672;28;20027;-76
2023/10/30 15:04:30;;;;;;;;;;;;;;;;;;10460022;28;19920;-76
2023/10/30 15:09:31;;;;;;;;;;;;;;;;;;10453886;28;19920;-76
2023/10/30 15:14:31;;;;;;;;;;;;;;;;;;10440746;28;19933;-76
2023/10/30 15:19:32;;;;;;;;;;;;;;;;;;10450927;28;19921;-77
2023/10/30 15:24:32;;;;;;;;;;;;;;;;;;10453342;28;19924;-76
2023/10/30 15:29:32;;;;;;;;;;;;;;;;;;10468660;28;19928;-73
2023/10/30 15:34:32;;;;;;;;;;;;;;;;;;10456894;28;19948;-76
2023/10/30 15:39:33;;;;;;;;;;;;;;;;;;10473907;28;19921;-77
2023/10/30 15:44:33;;;;;;;;;;;;;;;;;;10462306;28;20292;-75
2023/10/30 15:49:33;;;;;;;;;;;;;;;;;;10465244;28;20229;-78
2023/10/30 15:54:33;;;;;;;;;;;;;;;;;;10463230;28;19939;-76
2023/10/30 15:59:34;;;;;;;;;;;;;;;;;;10459679;28;19928;-77
2023/10/30 16:04:34;;;;;;;;;;;;;;;;;;10458567;28;20277;-74
2023/10/30 16:09:34;;;;;;;;;;;;;;;;;;10461751;28;20423;-76
2023/10/30 16:14:34;;;;;;;;;;;;;;;;;;10467269;28;19951;-74
2023/10/30 16:19:34;;;;;;;;;;;;;;;;;;10464996;28;19928;-76
2023/10/30 16:24:35;;;;;;;;;;;;;;;;;;10477011;28;19931;-76
2023/10/30 16:29:35;;;;;;;;;;;;;;;;;;10509759;28;19922;-75
2023/10/30 16:34:35;;;;;;;;;;;;;;;;;;10512673;28;19928;-73
2023/10/30 16:39:35;;;;;;;;;;;;;;;;;;10515081;28;19928;-76
2023/10/30 16:44:37;;;;;;;;;;;;;;;;;;10510453;28;19920;-75
2023/10/30 16:49:37;;;;;;;;;;;;;;;;;;10508928;28;19997;-79
2023/10/30 16:54:38;;;;;;;;;;;;;;;;;;10487783;28;19935;-80
2023/10/30 16:59:38;;;;;;;;;;;;;;;;;;10500882;28;19920;-79
2023/10/30 17:04:38;;;;;;;;;;;;;;;;;;10500179;28;20749;-76
2023/10/30 17:09:38;;;;;;;;;;;;;;;;;;10504166;28;19924;-77
2023/10/30 17:14:39;;;;;;;;;;;;;;;;;;10501272;28;19963;-80
2023/10/30 17:19:39;;;;;;;;;;;;;;;;;;10502737;28;20295;-77
2023/10/30 17:24:39;;;;;;;;;;;;;;;;;;10494769;28;19950;-76
2023/10/30 17:29:39;;;;;;;;;;;;;;;;;;10437339;28;20020;-79
2023/10/30 17:34:40;;;;;;;;;;;;;;;;;;10445322;28;19929;-77
2023/10/30 17:39:44;;;;;;;;;;;;;;;;;;10460075;28;19979;-76
2023/10/30 17:44:45;;;;;;;;;;;;;;;;;;10469237;28;20406;-74
2023/10/30 17:49:45;;;;;;;;;;;;;;;;;;10446117;28;19982;-75
2023/10/30 17:54:47;;;;;;;;;;;;;;;;;;10452066;28;20006;-76
2023/10/30 17:59:47;;;;;;;;;;;;;;;;;;10465606;28;19920;-80
2023/10/30 18:04:48;;;;;;;;;;;;;;;;;;10465462;28;19921;-79
2023/10/30 18:09:48;;;;;;;;;;;;;;;;;;10440411;28;19921;-80
2023/10/30 18:14:48;;;;;;;;;;;;;;;;;;10455338;28;20040;-80
2023/10/30 18:19:48;;;;;;;;;;;;;;;;;;10460327;28;19997;-79
2023/10/30 18:24:49;;;;;;;;;;;;;;;;;;10473278;28;19924;-77
2023/10/30 18:29:50;;;;;;;;;;;;;;;;;;10471060;28;19971;-78
2023/10/30 18:34:50;;;;;;;;;;;;;;;;;;10469720;28;19936;-76
2023/10/30 18:39:50;;;;;;;;;;;;;;;;;;10478121;28;19928;-77
2023/10/30 18:44:50;;;;;;;;;;;;;;;;;;10477475;28;19970;-75
2023/10/30 18:49:51;;;;;;;;;;;;;;;;;;10475099;28;20815;-78
2023/10/30 18:54:51;;;;;;;;;;;;;;;;;;10473312;28;19932;-79
2023/10/30 18:59:52;;;;;;;;;;;;;;;;;;10475418;28;20585;-75
2023/10/30 19:04:52;;;;;;;;;;;;;;;;;;10480034;28;20317;-76
2023/10/30 19:09:52;;;;;;;;;;;;;;;;;;10473086;28;20701;-78
2023/10/30 19:14:53;;;;;;;;;;;;;;;;;;10450663;28;19928;-79
2023/10/30 19:19:55;;;;;;;;;;;;;;;;;;10466076;28;19932;-77
2023/10/30 19:24:56;;;;;;;;;;;;;;;;;;10478540;28;19924;-78
2023/10/30 19:29:56;;;;;;;;;;;;;;;;;;10445509;28;19925;-78
2023/10/30 19:34:56;;;;;;;;;;;;;;;;;;10468793;28;19924;-77
2023/10/30 19:39:56;;;;;;;;;;;;;;;;;;10456130;28;20721;-78
2023/10/30 19:44:56;;;;;;;;;;;;;;;;;;10467064;28;21066;-79
2023/10/30 19:49:57;;;;;;;;;;;;;;;;;;10443921;28;19924;-73
2023/10/30 19:54:57;;;;;;;;;;;;;;;;;;10466449;28;19999;-76
2023/10/30 19:59:57;;;;;;;;;;;;;;;;;;10440743;28;19925;-75
2023/10/30 20:04:57;;;;;;;;;;;;;;;;;;10448003;28;20016;-77
2023/10/30 20:09:58;;;;;;;;;;;;;;;;;;10467196;28;19983;-75
2023/10/30 20:14:58;;;;;;;;;;;;;;;;;;10435845;28;19936;-78
2023/10/30 20:19:58;;;;;;;;;;;;;;;;;;10451684;28;20489;-82
2023/10/30 20:24:59;;;;;;;;;;;;;;;;;;10467377;28;19997;-76
2023/10/30 20:29:59;;;;;;;;;;;;;;;;;;10490000;28;19924;-77
2023/10/30 20:34:59;;;;;;;;;;;;;;;;;;10487575;28;19939;-77
2023/10/30 20:39:59;;;;;;;;;;;;;;;;;;10511463;28;20658;-74
2023/10/30 20:45:00;;;;;;;;;;;;;;;;;;10507065;28;20370;-78
2023/10/30 20:50:00;;;;;;;;;;;;;;;;;;10514782;28;19927;-76
2023/10/30 20:55:00;;;;;;;;;;;;;;;;;;10493546;28;19928;-76
2023/10/30 21:00:01;;;;;;;;;;;;;;;;;;10498665;28;19924;-75
2023/10/30 21:05:01;;;;;;;;;;;;;;;;;;10491849;28;20490;-79
2023/10/30 21:10:02;;;;;;;;;;;;;;;;;;10513818;28;21115;-78
2023/10/30 21:15:07;;;;;;;;;;;;;;;;;;10512351;28;19932;-74
2023/10/30 21:20:07;;;;;;;;;;;;;;;;;;10510223;28;19966;-79
2023/10/30 21:25:07;;;;;;;;;;;;;;;;;;10500301;28;19970;-75
2023/10/30 21:30:08;;;;;;;;;;;;;;;;;;10458294;28;19924;-74
2023/10/30 21:35:08;;;;;;;;;;;;;;;;;;10453310;28;19964;-77
2023/10/30 21:40:09;;;;;;;;;;;;;;;;;;10456651;28;19920;-78
2023/10/30 21:45:09;;;;;;;;;;;;;;;;;;10463579;28;19931;-77
2023/10/30 21:50:10;;;;;;;;;;;;;;;;;;10446146;28;20792;-74
2023/10/30 21:55:10;;;;;;;;;;;;;;;;;;10454180;28;19932;-75
2023/10/30 22:00:12;;;;;;;;;;;;;;;;;;10437053;28;20058;-77
2023/10/30 22:05:12;;;;;;;;;;;;;;;;;;10448519;28;19999;-75
2023/10/30 22:10:12;;;;;;;;;;;;;;;;;;10453519;28;19925;-75
2023/10/30 22:15:13;;;;;;;;;;;;;;;;;;10449237;28;20486;-77
2023/10/30 22:20:13;;;;;;;;;;;;;;;;;;10431523;28;19937;-74
2023/10/30 22:25:14;;;;;;;;;;;;;;;;;;10452172;28;19928;-78
2023/10/30 22:30:14;;;;;;;;;;;;;;;;;;10503891;28;20130;-75
2023/10/30 22:35:14;;;;;;;;;;;;;;;;;;10510008;28;20005;-72
2023/10/30 22:40:14;;;;;;;;;;;;;;;;;;10512588;28;21077;-74
2023/10/30 22:45:15;;;;;;;;;;;;;;;;;;10505620;28;19977;-75
2023/10/30 22:50:15;;;;;;;;;;;;;;;;;;10500027;28;19950;-76
2023/10/30 22:55:15;;;;;;;;;;;;;;;;;;10489535;28;19928;-74
2023/10/30 23:00:16;;;;;;;;;;;;;;;;;;10506913;28;19959;-77
2023/10/30 23:05:16;;;;;;;;;;;;;;;;;;10513279;28;19931;-77
2023/10/30 23:10:16;;;;;;;;;;;;;;;;;;10512292;28;19947;-73
2023/10/30 23:15:16;;;;;;;;;;;;;;;;;;10507839;28;19932;-74
2023/10/30 23:20:17;;;;;;;;;;;;;;;;;;10507638;28;19920;-75
2023/10/30 23:25:17;;;;;;;;;;;;;;;;;;10470025;28;19924;-75
2023/10/30 23:30:17;;;;;;;;;;;;;;;;;;10457884;28;20323;-74
2023/10/30 23:35:17;;;;;;;;;;;;;;;;;;10479231;28;21104;-76
2023/10/30 23:40:18;;;;;;;;;;;;;;;;;;10475824;28;19959;-75
2023/10/30 23:45:18;;;;;;;;;;;;;;;;;;10466633;28;19924;-74
2023/10/30 23:50:18;;;;;;;;;;;;;;;;;;10449677;28;20551;-75
2023/10/30 23:55:18;;;;;;;;;;;;;;;;;;10437158;28;19979;-77
